Time;durP1;ratioP1;P1;durP2;ratioP2;P2;SDS_P1;SDS_P2;PMS_P1;PMS_P2;Temp;Humidity;BMP_temperature;BMP_pressure;BME280_temperature;BME280_humidity;BME280_pressure;Samples;Min_cycle;Max_cycle;Signal;HPM_P1;HPM_P2
2021/12/11 00:00:29;;;;;;;25.17;12.63;;;-2.40;99.90;;;;;;4976207;28;20785;-75
2021/12/11 00:03:15;;;;;;;24.17;12.05;;;-2.50;99.90;;;;;;4958969;28;20486;-76
2021/12/11 00:05:44;;;;;;;22.92;12.60;;;-2.50;99.90;;;;;;4976543;28;20552;-76
2021/12/11 00:08:10;;;;;;;24.13;13.02;;;-2.50;99.90;;;;;;4976175;28;20437;-76
2021/12/11 00:10:47;;;;;;;28.25;14.43;;;-2.50;99.90;;;;;;4958825;28;20177;-76
2021/12/11 00:13:25;;;;;;;26.48;13.20;;;-1.90;99.90;;;;;;4976355;28;20054;-76
2021/12/11 00:15:51;;;;;;;24.95;13.77;;;-2.40;99.90;;;;;;4958845;28;20146;-76
2021/12/11 00:18:22;;;;;;;26.70;12.80;;;-2.40;99.90;;;;;;4976130;28;20121;-76
2021/12/11 00:20:56;;;;;;;30.08;13.48;;;-2.40;99.90;;;;;;4958985;28;20046;-76
2021/12/11 00:24:11;;;;;;;23.95;13.23;;;-2.50;99.90;;;;;;4975857;28;20045;-76
2021/12/11 00:26:44;;;;;;;25.98;13.30;;;-2.50;99.90;;;;;;4968429;28;20405;-76
2021/12/11 00:29:13;;;;;;;26.67;12.90;;;-2.50;99.90;;;;;;4958471;28;20058;-76
2021/12/11 00:31:46;;;;;;;24.05;13.32;;;-2.50;99.90;;;;;;4957859;28;20557;-76
2021/12/11 00:34:14;;;;;;;30.98;13.00;;;-2.50;99.90;;;;;;4958776;28;20054;-76
2021/12/11 00:36:40;;;;;;;22.35;12.02;;;-2.50;99.90;;;;;;4975677;28;20063;-76
2021/12/11 00:39:12;;;;;;;23.45;12.15;;;-2.50;99.90;;;;;;4975532;28;20147;-76
2021/12/11 00:41:39;;;;;;;22.40;11.43;;;-2.50;99.90;;;;;;4976009;28;20035;-76
2021/12/11 00:44:05;;;;;;;21.98;11.75;;;-2.50;99.90;;;;;;4975843;28;20046;-76
2021/12/11 00:46:33;;;;;;;21.00;10.82;;;-2.50;99.90;;;;;;4975851;28;20050;-76
2021/12/11 00:49:14;;;;;;;21.52;12.15;;;-2.60;99.90;;;;;;4958167;28;20059;-76
2021/12/11 00:51:40;;;;;;;21.38;11.27;;;-2.60;99.90;;;;;;4975531;28;20069;-76
2021/12/11 00:54:07;;;;;;;19.20;10.95;;;-2.60;99.90;;;;;;4975803;28;20051;-77
2021/12/11 00:56:36;;;;;;;21.67;11.50;;;-2.60;99.90;;;;;;4975370;28;20134;-76
2021/12/11 00:59:05;;;;;;;22.35;10.95;;;-2.60;99.90;;;;;;4975690;28;20043;-76
2021/12/11 01:01:33;;;;;;;23.08;10.98;;;-2.60;99.90;;;;;;4975313;28;20057;-77
2021/12/11 01:04:20;;;;;;;22.90;11.50;;;-2.60;99.90;;;;;;4975418;28;20462;-77
2021/12/11 01:06:52;;;;;;;20.35;11.45;;;-2.70;99.90;;;;;;4975527;28;20042;-76
2021/12/11 01:09:25;;;;;;;20.02;10.00;;;-2.60;99.90;;;;;;4975406;28;20051;-77
2021/12/11 01:12:04;;;;;;;20.17;10.70;;;-2.60;99.90;;;;;;4974882;28;20504;-77
2021/12/11 01:14:41;;;;;;;21.15;10.45;;;-2.70;99.90;;;;;;4975061;28;20047;-77
2021/12/11 01:17:25;;;;;;;19.98;10.27;;;-2.70;99.90;;;;;;4975408;28;20046;-77
2021/12/11 01:19:55;;;;;;;20.17;10.52;;;-2.70;99.90;;;;;;4975043;28;20046;-77
2021/12/11 01:22:33;;;;;;;23.10;11.48;;;-2.70;99.90;;;;;;4975179;28;20050;-77
2021/12/11 01:25:05;;;;;;;23.00;12.15;;;-2.60;99.90;;;;;;4974870;28;20086;-77
2021/12/11 01:27:31;;;;;;;22.08;13.32;;;-2.60;99.90;;;;;;4974890;28;20047;-76
2021/12/11 01:29:59;;;;;;;20.05;12.27;;;-2.60;99.90;;;;;;4957315;28;20042;-76
2021/12/11 01:32:27;;;;;;;27.52;14.07;;;-2.60;99.90;;;;;;4974863;28;20053;-77
2021/12/11 01:34:55;;;;;;;26.58;12.18;;;-2.60;99.90;;;;;;4974614;28;20053;-77
2021/12/11 01:37:21;;;;;;;23.35;12.35;;;-2.50;99.90;;;;;;4974708;28;20818;-76
2021/12/11 01:39:49;;;;;;;26.65;13.05;;;-2.60;99.90;;;;;;4974595;28;20054;-77
2021/12/11 01:42:27;;;;;;;22.17;11.48;;;-2.60;99.90;;;;;;4974544;28;20046;-77
2021/12/11 01:44:56;;;;;;;22.85;12.05;;;-2.60;99.90;;;;;;4973931;28;20051;-76
2021/12/11 01:47:28;;;;;;;22.05;11.57;;;-2.70;99.90;;;;;;4974536;28;20560;-77
2021/12/11 01:50:04;;;;;;;24.67;12.73;;;-2.70;99.90;;;;;;4957657;28;20054;-77
2021/12/11 01:52:38;;;;;;;24.20;13.07;;;-2.70;99.90;;;;;;4974371;28;20062;-77
2021/12/11 01:55:35;;;;;;;21.23;12.65;;;-2.70;99.90;;;;;;4974446;28;20545;-77
2021/12/11 01:58:01;;;;;;;24.88;12.20;;;-2.70;99.90;;;;;;4949488;28;20161;-76
2021/12/11 02:00:43;;;;;;;26.92;12.68;;;-2.80;99.90;;;;;;4974062;28;20049;-77
2021/12/11 02:03:14;;;;;;;24.55;12.32;;;-2.70;99.90;;;;;;4974599;28;20473;-76
2021/12/11 02:05:41;;;;;;;29.75;13.70;;;-2.70;99.90;;;;;;4974273;28;20046;-76
2021/12/11 02:08:14;;;;;;;22.83;12.35;;;-2.70;99.90;;;;;;4974350;28;20050;-76
2021/12/11 02:10:51;;;;;;;22.95;12.05;;;-2.70;99.90;;;;;;4957129;28;20087;-77
2021/12/11 02:13:24;;;;;;;20.90;11.52;;;-2.70;99.90;;;;;;4973720;28;20121;-77
2021/12/11 02:15:52;;;;;;;22.60;11.10;;;-2.70;99.90;;;;;;4974098;28;20085;-77
2021/12/11 02:18:20;;;;;;;24.38;11.95;;;-2.80;99.90;;;;;;4956726;28;20054;-77
2021/12/11 02:20:53;;;;;;;24.42;12.00;;;-2.80;99.90;;;;;;4974135;28;20086;-77
2021/12/11 02:23:20;;;;;;;21.00;11.52;;;-2.80;99.90;;;;;;4956670;28;20125;-77
2021/12/11 02:25:49;;;;;;;22.02;11.52;;;-2.80;99.90;;;;;;4973852;28;20082;-77
2021/12/11 02:28:24;;;;;;;28.17;13.60;;;-2.90;99.90;;;;;;4956577;28;20051;-77
2021/12/11 02:31:05;;;;;;;21.75;11.75;;;-2.90;99.90;;;;;;4973345;28;20479;-76
2021/12/11 02:34:07;;;;;;;23.55;11.82;;;-2.90;99.90;;;;;;4973769;28;20498;-77
2021/12/11 02:36:49;;;;;;;23.90;12.73;;;-2.90;99.90;;;;;;4973290;28;20465;-77
2021/12/11 02:39:28;;;;;;;23.08;11.35;;;-2.90;99.90;;;;;;4973917;28;20042;-76
2021/12/11 02:42:14;;;;;;;21.80;11.90;;;-2.90;99.90;;;;;;4973734;28;20043;-77
2021/12/11 02:44:48;;;;;;;25.25;13.00;;;-2.90;99.90;;;;;;4955821;28;20421;-77
2021/12/11 02:47:26;;;;;;;22.30;11.02;;;-2.90;99.90;;;;;;4973870;28;20067;-77
2021/12/11 02:49:59;;;;;;;24.50;11.38;;;-2.90;99.90;;;;;;4973775;28;20447;-77
2021/12/11 02:52:30;;;;;;;20.60;10.88;;;-2.90;99.90;;;;;;4956356;28;20042;-77
2021/12/11 02:55:07;;;;;;;18.23;10.95;;;-3.00;99.90;;;;;;4973314;28;20060;-77
2021/12/11 02:57:44;;;;;;;21.73;10.93;;;-3.00;99.90;;;;;;4973624;28;20039;-77
2021/12/11 03:00:17;;;;;;;24.25;12.65;;;-3.10;99.90;;;;;;4972946;28;20516;-77
2021/12/11 03:02:48;;;;;;;25.05;12.13;;;-3.00;99.90;;;;;;4973498;28;20528;-77
2021/12/11 03:05:22;;;;;;;25.90;13.18;;;-3.00;99.90;;;;;;4973551;28;20117;-76
2021/12/11 03:07:53;;;;;;;21.33;12.00;;;-2.90;99.90;;;;;;4973195;28;20047;-77
2021/12/11 03:10:24;;;;;;;27.67;13.65;;;-2.90;99.90;;;;;;4973660;28;20105;-77
2021/12/11 03:12:52;;;;;;;27.95;14.80;;;-2.90;99.90;;;;;;4973398;28;20047;-77
2021/12/11 03:15:18;;;;;;;24.25;13.05;;;-2.90;99.90;;;;;;4973196;28;20129;-77
2021/12/11 03:17:44;;;;;;;23.95;12.93;;;-2.90;99.90;;;;;;4973326;28;20130;-77
2021/12/11 03:20:14;;;;;;;27.85;14.35;;;-2.90;99.90;;;;;;4956064;28;20166;-77
2021/12/11 03:22:43;;;;;;;20.98;12.40;;;-2.90;99.90;;;;;;4972818;28;20042;-77
2021/12/11 03:25:14;;;;;;;23.33;12.52;;;-2.90;99.90;;;;;;4973152;28;20062;-77
2021/12/11 03:27:40;;;;;;;22.50;12.38;;;-2.90;99.90;;;;;;4973396;28;20043;-77
2021/12/11 03:30:08;;;;;;;24.85;12.98;;;-2.90;99.90;;;;;;4955632;28;20129;-77
2021/12/11 03:32:35;;;;;;;22.52;11.65;;;-2.90;99.90;;;;;;4972977;28;20174;-77
2021/12/11 03:35:03;;;;;;;22.42;12.68;;;-3.00;99.90;;;;;;4972968;28;20047;-77
2021/12/11 03:37:28;;;;;;;24.45;12.85;;;-3.10;99.90;;;;;;4955590;28;20502;-77
2021/12/11 03:39:55;;;;;;;21.42;12.00;;;-3.00;99.90;;;;;;4973067;28;20046;-77
2021/12/11 03:42:31;;;;;;;24.02;12.20;;;-3.00;99.90;;;;;;4973191;28;20090;-77
2021/12/11 03:45:00;;;;;;;26.48;12.10;;;-3.00;99.90;;;;;;4973271;28;20459;-77
2021/12/11 03:47:31;;;;;;;26.10;14.00;;;-3.00;99.90;;;;;;4972869;28;20121;-77
2021/12/11 03:49:57;;;;;;;27.13;12.30;;;-3.00;99.90;;;;;;4973020;28;20043;-77
2021/12/11 03:52:23;;;;;;;23.63;13.15;;;-3.00;99.90;;;;;;4955651;28;20131;-77
2021/12/11 03:54:51;;;;;;;25.88;13.60;;;-3.00;99.90;;;;;;4973003;28;20105;-77
2021/12/11 03:57:20;;;;;;;20.95;12.13;;;-3.10;99.90;;;;;;4972854;28;20046;-77
2021/12/11 03:59:48;;;;;;;24.65;13.45;;;-3.00;99.90;;;;;;4955592;28;20055;-77
2021/12/11 04:02:16;;;;;;;29.92;15.35;;;-3.00;99.90;;;;;;4972288;28;20126;-77
2021/12/11 04:04:47;;;;;;;26.80;13.88;;;-3.00;99.90;;;;;;4972878;28;20055;-77
2021/12/11 04:07:17;;;;;;;32.38;15.80;;;-2.90;99.90;;;;;;4956691;28;20047;-77
2021/12/11 04:09:45;;;;;;;34.28;17.35;;;-2.90;99.90;;;;;;4959179;28;20401;-77
2021/12/11 04:12:11;;;;;;;39.92;19.55;;;-2.90;99.90;;;;;;4976466;28;20038;-77
2021/12/11 04:14:40;;;;;;;43.15;17.90;;;-2.80;99.90;;;;;;4976284;28;20049;-77
2021/12/11 04:17:08;;;;;;;38.08;17.73;;;-2.80;99.90;;;;;;4976175;28;20058;-77
2021/12/11 04:19:34;;;;;;;33.00;16.00;;;-2.70;99.90;;;;;;4975911;28;20092;-77
2021/12/11 04:22:01;;;;;;;33.10;16.45;;;-2.70;99.90;;;;;;4958678;28;20079;-76
2021/12/11 04:24:30;;;;;;;34.42;16.65;;;-2.70;99.90;;;;;;4976244;28;20058;-76
2021/12/11 04:26:58;;;;;;;30.17;15.57;;;-2.70;99.90;;;;;;4958761;28;20054;-76
2021/12/11 04:29:25;;;;;;;38.13;17.85;;;-1.80;99.90;;;;;;4975932;28;20047;-77
2021/12/11 04:31:52;;;;;;;42.05;18.92;;;-2.70;99.90;;;;;;4975614;28;20379;-77
2021/12/11 04:34:20;;;;;;;29.75;15.43;;;-2.70;99.90;;;;;;4975810;28;20453;-77
2021/12/11 04:36:55;;;;;;;30.30;14.32;;;-2.70;99.90;;;;;;4975688;28;20059;-77
2021/12/11 04:39:23;;;;;;;26.77;14.35;;;-2.70;99.90;;;;;;4975970;28;20062;-77
2021/12/11 04:44:45;;;;;;;29.75;13.98;;;-2.80;99.90;;;;;;4897140;29;20056;-77
2021/12/11 04:47:32;;;;;;;29.00;13.75;;;-2.80;99.90;;;;;;4897297;29;20052;-77
2021/12/11 04:50:03;;;;;;;30.25;15.15;;;-2.80;99.90;;;;;;4896682;29;20052;-77
2021/12/11 04:58:03;;;;;;;29.42;14.18;;;-2.80;99.90;;;;;;4897129;29;20080;-78
2021/12/11 05:13:20;;;;;;;33.38;17.02;;;-2.70;99.90;;;;;;4896781;29;20052;-76
2021/12/11 05:15:48;;;;;;;33.40;16.95;;;-2.70;99.90;;;;;;4896300;29;20165;-76
2021/12/11 05:18:18;;;;;;;30.52;16.05;;;-2.70;99.90;;;;;;4896384;29;20052;-76
2021/12/11 05:20:46;;;;;;;27.40;14.48;;;-2.70;99.90;;;;;;4903117;29;20092;-77
2021/12/11 05:23:13;;;;;;;30.58;14.55;;;-2.70;99.90;;;;;;4955959;29;20051;-77
2021/12/11 05:25:39;;;;;;;28.25;14.40;;;-2.70;99.90;;;;;;4955711;29;20091;-77
2021/12/11 05:28:05;;;;;;;26.67;14.90;;;-2.80;99.90;;;;;;4955716;29;20090;-77
2021/12/11 05:30:36;;;;;;;31.80;14.88;;;-2.80;99.90;;;;;;4961961;28;20449;-77
2021/12/11 05:33:02;;;;;;;30.30;15.63;;;-2.80;99.90;;;;;;4974990;28;20402;-77
2021/12/11 05:35:30;;;;;;;26.88;13.50;;;-2.80;99.90;;;;;;4974805;28;20105;-77
2021/12/11 05:37:57;;;;;;;34.78;15.95;;;-2.80;99.90;;;;;;4974156;28;20058;-77
2021/12/11 05:40:26;;;;;;;21.85;13.07;;;-2.90;99.90;;;;;;4974779;28;20054;-77
2021/12/11 05:42:52;;;;;;;28.50;14.32;;;-3.00;99.90;;;;;;4974712;28;20498;-77
2021/12/11 05:45:18;;;;;;;26.92;14.30;;;-3.00;99.90;;;;;;4974475;28;20053;-77
2021/12/11 05:47:43;;;;;;;30.27;13.98;;;-3.00;99.90;;;;;;4974597;28;20057;-77
2021/12/11 05:50:14;;;;;;;27.80;15.25;;;-3.00;99.90;;;;;;4974728;28;20086;-77
2021/12/11 05:52:41;;;;;;;32.55;16.02;;;-3.00;99.90;;;;;;4974320;28;20051;-77
2021/12/11 05:55:09;;;;;;;25.38;14.40;;;-2.90;99.90;;;;;;4974530;28;20141;-76
2021/12/11 05:57:37;;;;;;;30.98;15.35;;;-3.00;99.90;;;;;;4974445;28;20057;-77
2021/12/11 06:00:10;;;;;;;29.25;13.90;;;-3.00;99.90;;;;;;4956519;28;20066;-77
2021/12/11 06:02:36;;;;;;;25.48;13.25;;;-3.00;99.90;;;;;;4974475;28;20084;-77
2021/12/11 06:05:03;;;;;;;25.48;14.32;;;-3.00;99.90;;;;;;4974376;28;20109;-77
2021/12/11 06:07:30;;;;;;;31.15;14.38;;;-3.00;99.90;;;;;;4956629;28;20038;-77
2021/12/11 06:10:10;;;;;;;27.02;14.43;;;-3.00;99.90;;;;;;4974208;28;20086;-77
2021/12/11 06:12:35;;;;;;;29.77;15.68;;;-3.00;99.90;;;;;;4974109;28;20055;-77
2021/12/11 06:15:02;;;;;;;28.45;15.13;;;-3.00;99.90;;;;;;4973702;28;20210;-77
2021/12/11 06:17:31;;;;;;;31.35;15.45;;;-3.00;99.90;;;;;;4974276;28;20102;-77
2021/12/11 06:19:58;;;;;;;26.45;14.23;;;-3.00;99.90;;;;;;4956619;28;20143;-77
2021/12/11 06:22:27;;;;;;;24.30;13.10;;;-3.10;99.90;;;;;;4974050;28;20064;-77
2021/12/11 06:24:55;;;;;;;28.35;13.68;;;-3.10;99.90;;;;;;4973668;28;20071;-77
2021/12/11 06:27:22;;;;;;;25.25;13.15;;;-3.10;99.90;;;;;;4973960;28;20046;-77
2021/12/11 06:29:48;;;;;;;29.75;14.20;;;-3.10;99.90;;;;;;4973619;28;20105;-78
2021/12/11 06:32:14;;;;;;;25.50;13.60;;;-3.20;99.90;;;;;;4957386;28;20054;-77
2021/12/11 06:34:40;;;;;;;23.90;11.55;;;-3.20;99.90;;;;;;4975061;28;20402;-77
2021/12/11 06:37:07;;;;;;;22.85;13.02;;;-3.20;99.90;;;;;;4975289;28;20443;-78
2021/12/11 06:39:33;;;;;;;28.45;13.65;;;-3.20;99.90;;;;;;4974365;28;20174;-77
2021/12/11 06:42:02;;;;;;;26.42;13.70;;;-3.30;99.90;;;;;;4956174;28;20102;-77
2021/12/11 06:44:28;;;;;;;29.00;15.32;;;-3.30;99.90;;;;;;4973690;28;20486;-77
2021/12/11 06:46:59;;;;;;;30.38;14.15;;;-3.30;99.90;;;;;;4973764;28;20049;-77
2021/12/11 06:49:27;;;;;;;26.35;13.95;;;-3.30;99.90;;;;;;4956551;28;20055;-77
2021/12/11 06:51:53;;;;;;;31.17;15.27;;;-3.30;99.90;;;;;;4956274;28;20047;-77
2021/12/11 06:54:19;;;;;;;29.30;14.77;;;-3.30;99.90;;;;;;4973216;28;20039;-77
2021/12/11 06:56:46;;;;;;;31.92;15.35;;;-3.30;99.90;;;;;;4973456;28;20490;-77
2021/12/11 06:59:12;;;;;;;28.27;14.77;;;-3.30;99.90;;;;;;4973160;28;20057;-77
2021/12/11 07:01:39;;;;;;;27.13;16.00;;;-3.30;99.90;;;;;;4973651;28;20046;-77
2021/12/11 07:04:07;;;;;;;26.55;13.90;;;-3.30;99.90;;;;;;4973462;28;20046;-77
2021/12/11 07:06:34;;;;;;;25.35;13.07;;;-3.30;99.90;;;;;;4973506;28;20050;-77
2021/12/11 07:09:02;;;;;;;29.13;14.68;;;-3.40;99.90;;;;;;4973487;28;20058;-77
2021/12/11 07:11:29;;;;;;;28.88;14.70;;;-3.40;99.90;;;;;;4972843;28;20047;-78
2021/12/11 07:13:54;;;;;;;28.75;15.27;;;-3.30;99.90;;;;;;4956438;28;20050;-77
2021/12/11 07:16:20;;;;;;;35.42;17.25;;;-3.30;99.90;;;;;;4973250;28;20051;-76
2021/12/11 07:18:46;;;;;;;27.92;16.17;;;-3.30;99.90;;;;;;4956065;28;20126;-77
2021/12/11 07:21:12;;;;;;;30.25;15.85;;;-3.20;99.90;;;;;;4973468;28;20082;-77
2021/12/11 07:23:42;;;;;;;27.30;14.13;;;-3.20;99.90;;;;;;4973202;28;20513;-77
2021/12/11 07:26:15;;;;;;;31.02;16.23;;;-3.20;99.90;;;;;;4972833;28;20506;-77
2021/12/11 07:28:48;;;;;;;32.42;15.32;;;-3.20;99.90;;;;;;4973019;28;20045;-77
2021/12/11 07:31:14;;;;;;;28.02;14.45;;;-3.20;99.90;;;;;;4955952;28;20082;-77
2021/12/11 07:33:40;;;;;;;31.08;14.85;;;-3.30;99.90;;;;;;4973355;28;20042;-77
2021/12/11 07:36:06;;;;;;;33.20;17.20;;;-3.30;99.90;;;;;;4971649;28;20426;-77
2021/12/11 07:38:32;;;;;;;34.17;17.95;;;-3.20;99.90;;;;;;4973011;28;20047;-78
2021/12/11 07:41:03;;;;;;;35.70;16.80;;;-3.20;99.90;;;;;;4972882;28;20449;-77
2021/12/11 07:43:30;;;;;;;31.60;16.83;;;-3.10;99.90;;;;;;4957915;28;20130;-78
2021/12/11 07:45:57;;;;;;;38.63;17.83;;;-3.10;99.90;;;;;;4962823;28;20051;-77
2021/12/11 07:48:23;;;;;;;31.73;16.35;;;-3.00;99.90;;;;;;4957390;29;20043;-77
2021/12/11 07:50:49;;;;;;;32.95;17.58;;;-3.00;99.90;;;;;;4939925;29;20079;-78
2021/12/11 07:53:17;;;;;;;37.72;19.75;;;-3.00;99.90;;;;;;4939749;29;20055;-77
2021/12/11 07:55:44;;;;;;;38.20;18.63;;;-2.90;99.90;;;;;;4956949;29;20061;-78
2021/12/11 07:58:10;;;;;;;34.55;17.40;;;-2.90;99.90;;;;;;4945187;28;20386;-78
2021/12/11 08:00:39;;;;;;;35.72;17.88;;;-2.80;99.90;;;;;;4976595;28;20038;-78
2021/12/11 08:03:08;;;;;;;36.28;18.80;;;-2.80;99.90;;;;;;4976271;28;20042;-78
2021/12/11 08:05:34;;;;;;;32.42;17.65;;;-2.80;99.90;;;;;;4958725;28;20071;-78
2021/12/11 08:08:02;;;;;;;35.00;17.00;;;-2.80;99.90;;;;;;4976218;28;20043;-78
2021/12/11 08:10:30;;;;;;;37.35;18.42;;;-2.80;99.90;;;;;;4976021;28;20051;-77
2021/12/11 08:12:58;;;;;;;38.33;17.52;;;-2.80;99.90;;;;;;4976151;28;20403;-79
2021/12/11 08:15:23;;;;;;;29.08;15.25;;;-2.80;99.90;;;;;;4976209;28;20046;-78
2021/12/11 08:17:54;;;;;;;29.70;15.52;;;-2.80;99.90;;;;;;4976257;28;20089;-78
2021/12/11 08:20:23;;;;;;;34.17;17.40;;;-2.80;99.90;;;;;;4975917;28;20096;-78
2021/12/11 08:22:50;;;;;;;31.63;16.45;;;-2.80;99.90;;;;;;4976118;28;20078;-78
2021/12/11 08:25:16;;;;;;;34.47;16.70;;;-2.80;99.90;;;;;;4975806;28;20181;-78
2021/12/11 08:27:42;;;;;;;40.53;20.05;;;-2.20;99.90;;;;;;4974804;28;20545;-78
2021/12/11 08:30:09;;;;;;;37.50;18.83;;;-2.70;99.90;;;;;;4974785;28;20498;-78
2021/12/11 08:32:35;;;;;;;36.28;18.95;;;-2.60;99.90;;;;;;4958444;28;20050;-77
2021/12/11 08:35:03;;;;;;;39.90;19.52;;;-2.60;99.90;;;;;;4975430;28;20047;-78
2021/12/11 08:37:29;;;;;;;41.60;20.63;;;-2.50;99.90;;;;;;4958232;28;20066;-78
2021/12/11 08:39:55;;;;;;;43.60;20.70;;;-2.50;99.90;;;;;;4964962;28;20489;-76
2021/12/11 08:42:24;;;;;;;41.05;20.88;;;-2.50;99.90;;;;;;4995299;28;20049;-79
2021/12/11 08:44:57;;;;;;;50.00;22.67;;;-2.40;99.90;;;;;;4994702;28;20043;-78
2021/12/11 08:47:24;;;;;;;45.13;23.13;;;-2.30;99.90;;;;;;4977414;28;20064;-79
2021/12/11 08:49:53;;;;;;;50.42;25.25;;;-2.20;99.90;;;;;;4995000;28;20097;-79
2021/12/11 08:52:41;;;;;;;51.95;25.00;;;-2.10;99.90;;;;;;4994521;28;20523;-79
2021/12/11 08:55:14;;;;;;;62.58;26.85;;;-2.00;99.90;;;;;;4976721;28;20145;-80
2021/12/11 08:57:41;;;;;;;59.25;25.33;;;-1.90;99.90;;;;;;4994734;28;20045;-76
2021/12/11 09:00:43;;;;;;;52.42;25.33;;;-1.80;99.90;;;;;;4959295;28;20419;-77
2021/12/11 09:03:29;;;;;;;53.70;25.80;;;-1.70;99.90;;;;;;4995261;28;20058;-78
2021/12/11 09:06:16;;;;;;;50.58;24.00;;;-1.60;99.90;;;;;;4996039;28;20054;-79
2021/12/11 09:08:59;;;;;;;57.40;26.33;;;-1.50;99.90;;;;;;4975445;28;20843;-79
2021/12/11 09:11:53;;;;;;;54.40;26.27;;;-1.40;99.90;;;;;;4977046;28;20055;-79
2021/12/11 09:14:29;;;;;;;62.13;27.77;;;-1.30;99.90;;;;;;4989003;28;20054;-78
2021/12/11 09:17:00;;;;;;;61.00;28.48;;;-1.20;99.90;;;;;;4996753;28;20064;-80
2021/12/11 09:19:47;;;;;;;63.60;29.27;;;-1.10;99.90;;;;;;5010899;28;20043;-78
2021/12/11 09:22:18;;;;;;;63.17;29.27;;;-1.00;99.90;;;;;;4992391;28;20042;-79
2021/12/11 09:24:49;;;;;;;63.85;29.13;;;-1.00;99.90;;;;;;4983479;28;20454;-79
2021/12/11 09:27:18;;;;;;;63.00;28.83;;;-0.90;99.90;;;;;;4974285;28;20058;-80
2021/12/11 09:29:57;;;;;;;52.63;27.25;;;-0.90;99.90;;;;;;4974287;28;20101;-79
2021/12/11 09:32:42;;;;;;;51.72;26.77;;;-0.80;99.90;;;;;;4992962;28;20596;-80
2021/12/11 09:35:19;;;;;;;69.50;30.15;;;-0.70;99.90;;;;;;4994587;28;20048;-79
2021/12/11 09:37:47;;;;;;;65.68;27.75;;;-0.60;99.90;;;;;;4962774;28;20058;-81
2021/12/11 09:40:36;;;;;;;64.60;29.20;;;-0.50;99.90;;;;;;4974737;28;20051;-81
2021/12/11 09:43:02;;;;;;;64.40;30.85;;;-0.40;99.90;;;;;;4895884;29;20065;-82
2021/12/11 09:45:38;;;;;;;58.60;28.83;;;-0.30;99.90;;;;;;4895833;29;20088;-84
2021/12/11 09:48:09;;;;;;;54.63;27.75;;;-0.20;99.90;;;;;;4895434;29;20056;-83
2021/12/11 09:50:46;;;;;;;55.63;29.10;;;-0.10;99.90;;;;;;4895873;29;20053;-83
2021/12/11 09:53:14;;;;;;;62.50;30.27;;;0.00;99.90;;;;;;4895788;29;20477;-84
2021/12/11 09:55:41;;;;;;;71.55;31.85;;;0.20;99.90;;;;;;4895463;29;20185;-83
2021/12/11 09:58:14;;;;;;;59.17;29.98;;;0.20;99.90;;;;;;4895636;29;20093;-81
2021/12/11 10:00:51;;;;;;;55.67;28.92;;;0.40;99.90;;;;;;4894976;29;20056;-82
2021/12/11 10:03:22;;;;;;;56.55;28.95;;;1.10;99.90;;;;;;4879736;29;20057;-81
2021/12/11 10:06:00;;;;;;;57.67;27.67;;;0.60;99.90;;;;;;4894881;29;20056;-84
2021/12/11 10:08:36;;;;;;;50.92;28.90;;;0.80;99.90;;;;;;4895591;29;20125;-81
2021/12/11 10:11:08;;;;;;;55.70;30.63;;;1.00;99.90;;;;;;4895637;29;20060;-83
2021/12/11 10:13:43;;;;;;;53.90;29.33;;;1.10;99.90;;;;;;4879452;29;20183;-83
2021/12/11 10:16:09;;;;;;;55.70;29.58;;;1.20;99.90;;;;;;4895413;29;20519;-83
2021/12/11 10:18:35;;;;;;;57.20;29.92;;;1.40;99.90;;;;;;4895031;29;20051;-82
2021/12/11 10:21:13;;;;;;;55.15;30.17;;;1.50;99.90;;;;;;4946417;28;20055;-81
2021/12/11 10:23:41;;;;;;;51.90;28.80;;;1.70;99.90;;;;;;4974027;28;20058;-81
2021/12/11 10:26:10;;;;;;;49.58;28.08;;;1.80;99.90;;;;;;4956370;28;20058;-82
2021/12/11 10:28:40;;;;;;;43.40;26.67;;;2.00;99.90;;;;;;4973752;28;20042;-82
2021/12/11 10:31:10;;;;;;;49.58;26.92;;;2.10;99.90;;;;;;4973375;28;20125;-82
2021/12/11 10:33:36;;;;;;;48.80;27.38;;;2.20;99.90;;;;;;4951528;28;20039;-82
2021/12/11 10:36:09;;;;;;;44.22;24.73;;;2.30;99.90;;;;;;4973760;28;20498;-81
2021/12/11 10:38:35;;;;;;;42.80;25.25;;;3.00;99.90;;;;;;4993189;28;20449;-82
2021/12/11 10:41:04;;;;;;;43.13;24.40;;;2.50;99.90;;;;;;4993000;28;20086;-82
2021/12/11 10:43:53;;;;;;;38.47;22.40;;;2.60;99.90;;;;;;4959487;28;20042;-83
2021/12/11 10:46:24;;;;;;;41.53;22.52;;;2.70;99.90;;;;;;4975443;28;20058;-82
2021/12/11 10:48:53;;;;;;;36.88;21.27;;;3.70;99.90;;;;;;4978317;28;20070;-82
2021/12/11 10:51:28;;;;;;;38.15;22.45;;;2.80;99.90;;;;;;4940303;28;20061;-81
2021/12/11 10:53:55;;;;;;;35.97;21.63;;;2.90;99.90;;;;;;4973783;28;20042;-81
2021/12/11 10:56:22;;;;;;;36.05;21.40;;;3.10;99.90;;;;;;4939999;28;20049;-82
2021/12/11 10:58:56;;;;;;;33.65;19.67;;;3.20;99.90;;;;;;4973494;28;20490;-83
2021/12/11 11:01:37;;;;;;;31.63;19.58;;;3.30;99.90;;;;;;4973692;28;20042;-81
2021/12/11 11:04:08;;;;;;;34.65;19.83;;;3.40;99.90;;;;;;4940569;28;20054;-81
2021/12/11 11:06:35;;;;;;;35.13;19.95;;;3.50;99.90;;;;;;4939935;28;20181;-83
2021/12/11 11:09:01;;;;;;;41.25;22.35;;;3.60;99.90;;;;;;4973225;28;20047;-82
2021/12/11 11:11:30;;;;;;;31.92;19.20;;;3.70;99.90;;;;;;4956437;28;20046;-81
2021/12/11 11:13:56;;;;;;;27.23;17.55;;;3.80;99.90;;;;;;4973622;28;20046;-81
2021/12/11 11:16:24;;;;;;;32.58;17.15;;;3.80;99.90;;;;;;4975113;28;20117;-81
2021/12/11 11:18:50;;;;;;;28.40;17.90;;;4.50;99.90;;;;;;4973446;28;20046;-80
2021/12/11 11:21:33;;;;;;;32.85;16.95;;;3.60;99.90;;;;;;4996390;28;20393;-81
2021/12/11 11:24:00;;;;;;;28.95;17.15;;;3.60;99.90;;;;;;4996486;28;20427;-81
2021/12/11 11:26:31;;;;;;;26.63;15.50;;;3.50;99.90;;;;;;4996919;28;20046;-82
2021/12/11 11:29:00;;;;;;;25.98;15.20;;;3.30;99.90;;;;;;4962901;28;20421;-81
2021/12/11 11:31:33;;;;;;;28.30;17.52;;;3.10;99.90;;;;;;4996767;28;20050;-81
2021/12/11 11:33:59;;;;;;;26.20;17.10;;;3.00;99.90;;;;;;4996655;28;20090;-81
2021/12/11 11:36:26;;;;;;;29.90;17.17;;;2.90;99.90;;;;;;4996358;28;20085;-81
2021/12/11 11:38:57;;;;;;;32.05;17.98;;;2.80;99.90;;;;;;4997280;28;20085;-81
2021/12/11 11:41:30;;;;;;;27.88;16.38;;;2.60;99.90;;;;;;4996996;28;20113;-80
2021/12/11 11:43:57;;;;;;;28.05;16.77;;;2.60;99.90;;;;;;4997675;28;20113;-82
2021/12/11 11:46:24;;;;;;;28.65;16.30;;;2.60;99.90;;;;;;4997144;28;20058;-81
2021/12/11 11:48:53;;;;;;;27.48;16.58;;;2.60;99.90;;;;;;4996121;28;20386;-81
2021/12/11 11:51:43;;;;;;;25.55;15.52;;;2.50;99.90;;;;;;4996231;28;20470;-81
2021/12/11 11:54:11;;;;;;;28.38;16.30;;;2.50;99.90;;;;;;4996518;28;20050;-83
2021/12/11 11:56:43;;;;;;;25.80;16.20;;;3.00;99.90;;;;;;4962629;28;20046;-80
2021/12/11 11:59:10;;;;;;;30.13;17.15;;;2.50;99.90;;;;;;4996090;28;20086;-82
2021/12/11 12:01:48;;;;;;;28.15;16.55;;;2.50;99.90;;;;;;4995559;28;20125;-81
2021/12/11 12:04:18;;;;;;;28.77;17.25;;;2.40;99.90;;;;;;4962526;28;20564;-82
2021/12/11 12:06:47;;;;;;;30.55;17.88;;;2.40;99.90;;;;;;4962344;28;20555;-83
2021/12/11 12:09:15;;;;;;;26.85;16.58;;;2.30;99.90;;;;;;4995712;28;20038;-82
2021/12/11 12:11:41;;;;;;;32.90;18.42;;;2.30;99.90;;;;;;4978263;28;20125;-81
2021/12/11 12:14:12;;;;;;;30.95;17.13;;;2.30;99.90;;;;;;4995604;28;20539;-81
2021/12/11 12:16:41;;;;;;;28.10;17.08;;;2.20;99.90;;;;;;4962370;28;20061;-81
2021/12/11 12:19:07;;;;;;;30.13;17.88;;;2.20;99.90;;;;;;4995722;28;20287;-81
2021/12/11 12:21:35;;;;;;;35.75;18.90;;;2.20;99.90;;;;;;4995869;28;20177;-81
2021/12/11 12:24:02;;;;;;;31.48;18.38;;;2.10;99.90;;;;;;4995230;28;20046;-81
2021/12/11 12:26:29;;;;;;;33.05;18.70;;;2.20;99.90;;;;;;4995527;28;20137;-81
2021/12/11 12:28:57;;;;;;;31.90;18.60;;;2.20;99.90;;;;;;4977109;28;20177;-81
2021/12/11 12:31:34;;;;;;;32.67;19.00;;;2.20;99.90;;;;;;4995381;28;20104;-80
2021/12/11 12:34:01;;;;;;;33.85;19.00;;;2.30;99.90;;;;;;4995413;28;20051;-80
2021/12/11 12:36:27;;;;;;;31.10;19.23;;;2.30;99.90;;;;;;4977590;28;20054;-80
2021/12/11 12:38:53;;;;;;;30.95;18.10;;;2.30;99.90;;;;;;4994931;28;20493;-82
2021/12/11 12:41:34;;;;;;;34.95;18.27;;;2.30;99.90;;;;;;4995184;28;20046;-81
2021/12/11 12:46:40;;;;;;;35.72;18.77;;;2.30;99.90;;;;;;4975574;28;20677;-81
2021/12/11 12:49:06;;;;;;;33.95;20.05;;;2.40;99.90;;;;;;4975838;28;20042;-80
2021/12/11 12:51:33;;;;;;;38.30;19.90;;;2.60;99.90;;;;;;4975760;28;20053;-80
2021/12/11 12:54:01;;;;;;;35.85;19.42;;;2.80;99.90;;;;;;4958096;28;20760;-80
2021/12/11 12:56:33;;;;;;;33.42;18.67;;;3.00;99.90;;;;;;4975664;28;20382;-79
2021/12/11 12:59:26;;;;;;;32.38;18.63;;;3.10;99.90;;;;;;4975484;28;20051;-80
2021/12/11 13:01:57;;;;;;;36.30;20.30;;;3.10;99.90;;;;;;4942441;28;20043;-79
2021/12/11 13:04:28;;;;;;;36.75;20.63;;;3.10;99.90;;;;;;4975350;28;20042;-79
2021/12/11 13:06:57;;;;;;;36.08;20.73;;;3.50;99.90;;;;;;4975433;28;20042;-79
2021/12/11 13:09:30;;;;;;;35.75;20.15;;;3.20;99.90;;;;;;4975186;28;20053;-79
2021/12/11 13:12:09;;;;;;;38.80;20.30;;;3.30;99.90;;;;;;4975203;28;20053;-79